createdAt,value
2022-09-10T00:02:01.833Z,6.82
2022-09-10T00:04:29.165Z,7.45
2022-09-10T00:06:56.842Z,7.45
2022-09-10T00:09:24.010Z,7.55
2022-09-10T00:11:51.000Z,7.55
2022-09-10T00:14:23.394Z,7.63
2022-09-10T00:16:50.779Z,8.48
2022-09-10T00:19:19.685Z,8.55
2022-09-10T00:21:46.773Z,7.45
2022-09-10T00:24:14.233Z,7.38
2022-09-10T00:26:41.951Z,7.60
2022-09-10T00:29:12.066Z,7.63
2022-09-10T00:31:40.183Z,8.02
2022-09-10T00:34:09.249Z,8.02
2022-09-10T00:36:42.195Z,7.10
2022-09-10T00:39:15.191Z,8.88
2022-09-10T00:41:44.927Z,8.68
2022-09-10T00:44:40.057Z,8.00
2022-09-10T00:47:34.260Z,7.40
2022-09-10T00:50:07.211Z,8.27
2022-09-10T00:52:39.392Z,7.30
2022-09-10T00:55:08.853Z,8.23
2022-09-10T00:57:36.284Z,8.35
2022-09-10T01:00:09.877Z,7.47
2022-09-10T01:02:37.028Z,7.85
2022-09-10T01:05:04.913Z,8.00
2022-09-10T01:07:33.187Z,8.40
2022-09-10T01:10:05.237Z,8.23
2022-09-10T01:12:54.227Z,8.18
2022-09-10T01:15:51.125Z,8.18
2022-09-10T01:18:49.675Z,8.05
2022-09-10T01:24:18.662Z,7.57
2022-09-10T01:27:06.299Z,8.07
2022-09-10T01:29:57.677Z,8.98
2022-09-10T01:32:49.195Z,7.97
2022-09-10T01:35:25.468Z,8.18
2022-09-10T01:37:59.897Z,9.10
2022-09-10T01:40:30.448Z,8.50
2022-09-10T01:43:07.936Z,8.52
2022-09-10T01:46:01.152Z,8.60
2022-09-10T01:48:43.239Z,9.10
2022-09-10T01:51:36.975Z,8.50
2022-09-10T01:54:30.973Z,8.75
2022-09-10T01:57:24.774Z,8.50
2022-09-10T01:59:54.816Z,8.65
2022-09-10T02:02:28.946Z,9.35
2022-09-10T02:04:58.205Z,9.13
2022-09-10T02:07:26.824Z,9.80
2022-09-10T02:09:55.786Z,9.95
2022-09-10T02:12:24.768Z,9.77
2022-09-10T02:15:12.775Z,10.20
2022-09-10T02:17:56.120Z,9.63
2022-09-10T02:20:23.448Z,10.63
2022-09-10T02:22:58.816Z,9.55
2022-09-10T02:25:33.465Z,10.60
2022-09-10T02:30:30.764Z,9.77
2022-09-10T02:32:58.033Z,10.10
2022-09-10T02:35:25.746Z,10.52
2022-09-10T02:37:53.531Z,11.20
2022-09-10T02:40:20.645Z,10.70
2022-09-10T02:42:47.832Z,10.52
2022-09-10T02:45:19.414Z,10.18
2022-09-10T02:47:46.438Z,10.82
2022-09-10T02:50:16.031Z,11.00
2022-09-10T02:52:46.184Z,10.98
2022-09-10T02:55:14.075Z,10.90
2022-09-10T02:57:42.532Z,9.98
2022-09-10T03:00:11.169Z,11.45
2022-09-10T03:02:38.232Z,10.73
2022-09-10T03:05:18.341Z,11.18
2022-09-10T03:07:51.678Z,10.65
2022-09-10T03:10:18.754Z,11.85
2022-09-10T03:12:45.906Z,10.75
2022-09-10T03:15:12.950Z,10.77
2022-09-10T03:17:39.949Z,11.25
2022-09-10T03:20:07.897Z,12.60
2022-09-10T03:22:35.778Z,11.90
2022-09-10T03:25:02.925Z,11.45
2022-09-10T03:27:30.859Z,11.90
2022-09-10T03:29:57.992Z,12.38
2022-09-10T03:32:25.100Z,11.82
2022-09-10T03:34:53.162Z,12.10
2022-09-10T03:37:20.209Z,13.70
2022-09-10T03:39:47.326Z,13.57
2022-09-10T03:42:16.634Z,12.77
2022-09-10T03:44:43.942Z,12.05
2022-09-10T03:47:12.361Z,12.68
2022-09-10T03:49:40.065Z,13.65
2022-09-10T03:52:08.004Z,11.85
2022-09-10T03:54:37.368Z,13.45
2022-09-10T03:57:04.902Z,14.90
2022-09-10T03:59:32.722Z,14.70
2022-09-10T04:02:03.044Z,12.77
2022-09-10T04:04:32.006Z,12.35
2022-09-10T04:06:59.133Z,12.20
2022-09-10T04:09:26.064Z,13.55
2022-09-10T04:11:53.096Z,13.10
2022-09-10T04:14:22.599Z,13.05
2022-09-10T04:16:49.850Z,14.85
2022-09-10T04:19:18.471Z,15.82
2022-09-10T04:21:48.591Z,14.35
2022-09-10T04:24:15.632Z,13.15
2022-09-10T04:26:42.669Z,13.80
2022-09-10T04:29:13.330Z,12.18
2022-09-10T04:31:41.377Z,12.80
2022-09-10T04:34:13.145Z,12.43
2022-09-10T04:36:40.504Z,12.50
2022-09-10T04:39:09.021Z,13.25
2022-09-10T04:41:37.082Z,12.35
2022-09-10T04:44:06.491Z,12.57
2022-09-10T04:46:35.137Z,12.20
2022-09-10T04:49:03.625Z,12.35
2022-09-10T04:51:33.572Z,12.50
2022-09-10T04:54:01.928Z,12.88
2022-09-10T04:56:36.765Z,12.90
2022-09-10T04:59:05.060Z,12.52
2022-09-10T05:01:35.739Z,12.40
2022-09-10T05:04:04.546Z,10.43
2022-09-10T05:06:33.105Z,10.45
2022-09-10T05:09:00.113Z,11.48
2022-09-10T05:11:27.565Z,10.05
2022-09-10T05:13:54.713Z,9.65
2022-09-10T05:16:25.781Z,9.55
2022-09-10T05:18:53.410Z,9.63
2022-09-10T05:21:20.931Z,9.73
2022-09-10T05:23:48.122Z,8.60
2022-09-10T05:26:15.404Z,9.65
2022-09-10T05:28:42.852Z,8.80
2022-09-10T05:31:13.769Z,9.07
2022-09-10T05:33:43.468Z,9.88
2022-09-10T05:36:13.056Z,9.23
2022-09-10T05:38:41.428Z,8.65
2022-09-10T05:41:12.157Z,8.65
2022-09-10T05:43:43.753Z,9.02
2022-09-10T05:46:11.705Z,8.88
2022-09-10T05:48:41.886Z,8.00
2022-09-10T05:51:10.896Z,7.35
2022-09-10T05:53:39.005Z,7.35
2022-09-10T05:56:07.472Z,6.40
2022-09-10T05:58:36.197Z,7.93
2022-09-10T06:01:03.789Z,6.68
2022-09-10T06:03:32.181Z,9.98
2022-09-10T06:06:01.817Z,8.27
2022-09-10T06:08:33.273Z,6.30
2022-09-10T06:11:07.063Z,6.13
2022-09-10T06:13:42.356Z,6.10
2022-09-10T06:16:09.981Z,5.15
2022-09-10T06:18:37.659Z,5.20
2022-09-10T06:21:15.699Z,4.60
2022-09-10T06:23:44.999Z,4.70
2022-09-10T06:26:20.150Z,4.40
2022-09-10T06:28:53.077Z,3.70
2022-09-10T06:31:20.290Z,3.80
2022-09-10T06:33:50.212Z,4.13
2022-09-10T06:36:20.600Z,3.30
2022-09-10T06:38:49.756Z,4.50
2022-09-10T06:41:17.376Z,4.05
2022-09-10T06:43:52.699Z,3.78
2022-09-10T06:49:29.778Z,3.30
2022-09-10T06:51:57.954Z,3.10
2022-09-10T06:54:26.579Z,2.80
2022-09-10T06:56:58.177Z,3.00
2022-09-10T06:59:25.746Z,2.80
2022-09-10T07:01:52.991Z,2.67
2022-09-10T07:04:21.554Z,2.80
2022-09-10T07:06:49.297Z,2.80
2022-09-10T07:09:17.495Z,3.10
2022-09-10T07:12:05.073Z,2.53
2022-09-10T07:14:35.889Z,3.30
2022-09-10T07:17:06.708Z,3.55
2022-09-10T07:19:36.465Z,3.95
2022-09-10T07:22:07.163Z,4.03
2022-09-10T07:24:34.781Z,3.95
2022-09-10T07:27:06.844Z,4.03
2022-09-10T07:29:35.820Z,15.40
2022-09-10T07:32:04.586Z,5.82
2022-09-10T07:34:32.418Z,3.85
2022-09-10T07:37:02.048Z,3.22
2022-09-10T07:39:30.569Z,3.45
2022-09-10T07:42:00.426Z,3.00
2022-09-10T07:44:30.107Z,3.80
2022-09-10T07:47:03.548Z,3.72
2022-09-10T07:49:32.795Z,4.05
2022-09-10T07:52:00.384Z,4.03
2022-09-10T07:54:33.265Z,3.83
2022-09-10T07:57:01.145Z,4.00
2022-09-10T07:59:28.429Z,4.28
2022-09-10T08:02:02.076Z,3.38
2022-09-10T08:04:36.815Z,2.95
2022-09-10T08:07:07.435Z,3.40
2022-09-10T08:09:37.589Z,3.13
2022-09-10T08:12:07.848Z,3.10
2022-09-10T08:14:36.697Z,3.28
2022-09-10T08:17:04.740Z,3.70
2022-09-10T08:19:36.784Z,3.58
2022-09-10T08:22:04.390Z,4.45
2022-09-10T08:24:38.216Z,4.07
2022-09-10T08:27:05.667Z,4.25
2022-09-10T08:29:32.743Z,4.15
2022-09-10T08:32:00.709Z,3.80
2022-09-10T08:34:31.240Z,3.42
2022-09-10T08:37:09.464Z,3.25
2022-09-10T08:39:38.589Z,3.75
2022-09-10T08:42:09.484Z,3.30
2022-09-10T08:45:00.174Z,3.17
2022-09-10T08:47:56.701Z,3.25
2022-09-10T08:50:23.820Z,3.25
2022-09-10T08:53:23.180Z,3.42
2022-09-10T08:55:51.327Z,3.20
2022-09-10T08:58:28.682Z,2.92
2022-09-10T09:01:01.663Z,3.25
2022-09-10T09:03:42.971Z,2.50
2022-09-10T09:06:29.765Z,2.83
2022-09-10T09:09:01.018Z,3.25
2022-09-10T09:11:50.389Z,3.80
2022-09-10T09:14:45.317Z,3.85
2022-09-10T09:17:43.415Z,3.55
2022-09-10T09:20:34.676Z,3.22
2022-09-10T09:23:15.074Z,3.80
2022-09-10T09:25:54.228Z,3.58
2022-09-10T09:28:37.853Z,3.53
2022-09-10T09:31:14.255Z,4.53
2022-09-10T09:33:42.235Z,23.40
2022-09-10T09:36:17.228Z,6.80
2022-09-10T09:38:51.638Z,4.47
2022-09-10T09:41:53.715Z,4.15
2022-09-10T09:44:21.309Z,3.50
2022-09-10T09:46:49.897Z,3.53
2022-09-10T09:49:17.676Z,6.32
2022-09-10T09:51:48.159Z,3.97
2022-09-10T09:57:19.764Z,3.50
2022-09-10T09:59:49.552Z,3.67
2022-09-10T10:02:23.644Z,3.13
2022-09-10T10:05:26.401Z,3.65
2022-09-10T10:07:53.587Z,3.50
2022-09-10T10:10:25.705Z,3.28
2022-09-10T10:12:54.926Z,3.10
2022-09-10T10:15:54.324Z,3.35
2022-09-10T10:18:27.624Z,4.05
2022-09-10T10:21:12.905Z,4.10
2022-09-10T10:23:40.089Z,3.33
2022-09-10T10:26:25.929Z,3.15
2022-09-10T10:29:07.099Z,2.70
2022-09-10T10:31:41.660Z,3.10
2022-09-10T10:34:17.176Z,3.45
2022-09-10T10:37:05.044Z,3.35
2022-09-10T10:39:45.459Z,3.08
2022-09-10T10:42:21.626Z,3.50
2022-09-10T10:45:19.223Z,3.53
2022-09-10T10:48:01.073Z,3.30
2022-09-10T10:50:37.672Z,3.00
2022-09-10T10:53:36.203Z,3.08
2022-09-10T10:56:13.124Z,3.35
2022-09-10T10:59:13.804Z,3.47
2022-09-10T11:01:48.752Z,3.33
2022-09-10T11:04:31.834Z,3.00
2022-09-10T11:07:13.193Z,3.25
2022-09-10T11:10:01.679Z,3.38
2022-09-10T11:12:35.096Z,3.20
2022-09-10T11:15:07.417Z,3.00
2022-09-10T11:17:54.216Z,3.22
2022-09-10T11:20:29.642Z,4.07
2022-09-10T11:23:18.626Z,4.18
2022-09-10T11:26:16.066Z,3.92
2022-09-10T11:28:54.527Z,3.70
2022-09-10T11:31:50.983Z,3.92
2022-09-10T11:34:33.078Z,3.75
2022-09-10T11:37:40.312Z,3.70
2022-09-10T11:40:18.690Z,3.63
2022-09-10T11:42:52.732Z,3.30
2022-09-10T11:45:38.461Z,4.07
2022-09-10T11:48:23.533Z,2.88
2022-09-10T11:51:10.915Z,3.30
2022-09-10T11:53:37.913Z,3.70
2022-09-10T11:56:23.298Z,3.50
2022-09-10T11:59:08.688Z,4.00
2022-09-10T12:02:02.917Z,3.60
2022-09-10T12:04:50.914Z,3.33
2022-09-10T12:07:24.218Z,3.40
2022-09-10T12:10:31.690Z,3.30
2022-09-10T12:12:59.533Z,3.53
2022-09-10T12:15:34.508Z,3.25
2022-09-10T12:18:07.677Z,3.25
2022-09-10T12:20:52.841Z,6.80
2022-09-10T12:23:49.769Z,3.78
2022-09-10T12:26:20.698Z,3.28
2022-09-10T12:28:53.781Z,3.97
2022-09-10T12:31:22.129Z,3.33
2022-09-10T12:33:51.367Z,3.22
2022-09-10T12:36:27.525Z,3.38
2022-09-10T12:39:20.296Z,3.60
2022-09-10T12:41:47.430Z,3.13
2022-09-10T12:44:44.333Z,2.80
2022-09-10T12:47:17.255Z,3.33
2022-09-10T12:50:09.227Z,2.70
2022-09-10T12:53:16.547Z,2.92
2022-09-10T12:56:02.335Z,3.20
2022-09-10T12:58:38.284Z,2.97
2022-09-10T13:01:18.527Z,2.90
2022-09-10T13:03:59.755Z,2.70
2022-09-10T13:06:40.277Z,3.40
2022-09-10T13:09:28.569Z,3.60
2022-09-10T13:12:00.515Z,4.45
2022-09-10T13:14:38.275Z,4.20
2022-09-10T13:17:06.251Z,3.47
2022-09-10T13:19:35.166Z,3.15
2022-09-10T13:22:03.380Z,2.97
2022-09-10T13:24:34.504Z,2.90
2022-09-10T13:27:24.676Z,2.92
2022-09-10T13:30:31.502Z,3.10
2022-09-10T13:33:07.683Z,2.92
2022-09-10T13:35:49.655Z,2.90
2022-09-10T13:38:44.820Z,2.88
2022-09-10T13:41:32.495Z,2.90
2022-09-10T13:44:10.764Z,2.90
2022-09-10T13:46:46.658Z,3.00
2022-09-10T13:49:29.341Z,3.33
2022-09-10T13:51:59.536Z,3.20
2022-09-10T13:54:38.652Z,2.88
2022-09-10T13:57:30.178Z,3.22
2022-09-10T14:00:17.869Z,3.03
2022-09-10T14:03:12.829Z,3.10
2022-09-10T14:05:57.534Z,3.15
2022-09-10T14:08:39.435Z,3.28
2022-09-10T14:11:07.451Z,3.03
2022-09-10T14:13:43.258Z,3.50
2022-09-10T14:16:18.026Z,3.47
2022-09-10T14:18:51.732Z,3.00
2022-09-10T14:21:26.954Z,3.15
2022-09-10T14:23:56.617Z,3.13
2022-09-10T14:26:27.066Z,3.35
2022-09-10T14:28:56.592Z,3.08
2022-09-10T14:31:30.221Z,3.85
2022-09-10T14:33:59.321Z,2.80
2022-09-10T14:36:29.609Z,3.28
2022-09-10T14:39:14.339Z,2.95
2022-09-10T14:41:41.955Z,2.92
2022-09-10T14:44:24.125Z,3.30
2022-09-10T14:47:10.902Z,2.80
2022-09-10T14:49:41.513Z,3.33
2022-09-10T14:52:10.949Z,3.60
2022-09-10T14:54:38.545Z,3.97
2022-09-10T14:57:10.121Z,4.28
2022-09-10T14:59:39.040Z,3.90
2022-09-10T15:02:17.334Z,3.60
2022-09-10T15:04:44.466Z,3.70
2022-09-10T15:07:12.124Z,3.67
2022-09-10T15:09:40.807Z,3.47
2022-09-10T15:12:13.293Z,3.60
2022-09-10T15:14:40.858Z,3.20
2022-09-10T15:17:09.759Z,3.50
2022-09-10T15:19:36.822Z,3.38
2022-09-10T15:22:04.229Z,3.35
2022-09-10T15:24:52.546Z,3.30
2022-09-10T15:27:21.926Z,3.28
2022-09-10T15:29:49.396Z,3.80
2022-09-10T15:32:18.424Z,3.67
2022-09-10T15:34:45.516Z,3.22
2022-09-10T15:37:12.727Z,3.60
2022-09-10T15:39:40.201Z,3.30
2022-09-10T15:42:07.627Z,3.08
2022-09-10T15:44:34.982Z,4.10
2022-09-10T15:47:02.981Z,3.40
2022-09-10T15:49:30.016Z,3.75
2022-09-10T15:51:57.490Z,3.63
2022-09-10T15:54:24.681Z,3.95
2022-09-10T15:56:52.400Z,4.13
2022-09-10T15:59:19.494Z,4.20
2022-09-10T16:01:46.868Z,4.20
2022-09-10T16:04:15.579Z,3.97
2022-09-10T16:06:43.399Z,4.70
2022-09-10T16:09:13.711Z,4.63
2022-09-10T16:11:42.589Z,4.15
2022-09-10T16:14:13.872Z,4.25
2022-09-10T16:16:41.481Z,4.68
2022-09-10T16:19:09.487Z,4.80
2022-09-10T16:21:37.768Z,4.70
2022-09-10T16:24:06.713Z,4.70
2022-09-10T16:26:36.702Z,4.68
2022-09-10T16:29:12.977Z,5.25
2022-09-10T16:31:40.523Z,5.57
2022-09-10T16:34:11.566Z,4.97
2022-09-10T16:36:40.029Z,4.82
2022-09-10T16:39:14.088Z,5.65
2022-09-10T16:41:44.514Z,5.18
2022-09-10T16:44:14.801Z,5.65
2022-09-10T16:46:42.872Z,5.30
2022-09-10T16:49:14.459Z,5.20
2022-09-10T16:51:43.395Z,5.18
2022-09-10T16:54:11.668Z,7.05
2022-09-10T16:56:46.058Z,6.25
2022-09-10T16:59:18.642Z,6.05
2022-09-10T17:01:48.157Z,6.47
2022-09-10T17:04:26.044Z,4.90
2022-09-10T17:06:58.337Z,5.68
2022-09-10T17:09:26.248Z,5.43
2022-09-10T17:11:54.076Z,6.57
2022-09-10T17:14:21.305Z,6.93
2022-09-10T17:16:48.884Z,6.60
2022-09-10T17:19:19.578Z,6.13
2022-09-10T17:21:51.431Z,6.57
2022-09-10T17:24:22.634Z,6.90
2022-09-10T17:26:52.099Z,6.88
2022-09-10T17:29:23.377Z,6.97
2022-09-10T17:31:57.592Z,7.25
2022-09-10T17:34:26.722Z,7.07
2022-09-10T17:36:54.533Z,7.45
2022-09-10T17:39:21.701Z,7.57
2022-09-10T17:41:48.895Z,7.22
2022-09-10T17:44:16.155Z,7.50
2022-09-10T17:46:43.197Z,7.85
2022-09-10T17:49:14.339Z,8.27
2022-09-10T17:51:42.137Z,8.80
2022-09-10T17:54:09.585Z,8.02
2022-09-10T17:56:38.190Z,7.35
2022-09-10T17:59:06.194Z,7.68
2022-09-10T18:01:40.479Z,7.20
2022-09-10T18:04:12.706Z,7.32
2022-09-10T18:06:40.986Z,8.30
2022-09-10T18:09:08.705Z,7.38
2022-09-10T18:11:38.921Z,8.02
2022-09-10T18:14:07.643Z,8.63
2022-09-10T18:16:36.794Z,8.07
2022-09-10T18:19:16.004Z,7.95
2022-09-10T18:21:45.210Z,7.82
2022-09-10T18:24:23.889Z,7.90
2022-09-10T18:26:54.084Z,8.50
2022-09-10T18:29:23.768Z,8.77
2022-09-10T18:32:01.062Z,7.85
2022-09-10T18:34:31.156Z,8.55
2022-09-10T18:37:01.225Z,7.53
2022-09-10T18:39:31.079Z,8.02
2022-09-10T18:42:01.196Z,7.60
2022-09-10T18:44:31.149Z,7.95
2022-09-10T18:46:58.521Z,8.02
2022-09-10T18:49:26.927Z,8.65
2022-09-10T18:51:55.921Z,8.50
2022-09-10T18:54:24.484Z,7.88
2022-09-10T18:56:53.432Z,8.25
2022-09-10T18:59:23.636Z,9.32
2022-09-10T19:01:53.250Z,8.65
2022-09-10T19:04:23.934Z,8.73
2022-09-10T19:06:52.392Z,8.65
2022-09-10T19:09:22.172Z,8.98
2022-09-10T19:11:50.737Z,9.13
2022-09-10T19:14:23.688Z,9.05
2022-09-10T19:16:51.360Z,9.38
2022-09-10T19:19:24.386Z,9.38
2022-09-10T19:21:53.497Z,9.40
2022-09-10T19:24:32.826Z,8.85
2022-09-10T19:27:08.417Z,8.68
2022-09-10T19:29:35.636Z,9.02
2022-09-10T19:32:03.049Z,8.80
2022-09-10T19:34:30.515Z,9.43
2022-09-10T19:36:57.504Z,9.52
2022-09-10T19:39:24.746Z,10.10
2022-09-10T19:41:51.838Z,9.98
2022-09-10T19:44:18.937Z,9.32
2022-09-10T19:46:45.942Z,8.70
2022-09-10T19:49:13.136Z,8.93
2022-09-10T19:51:41.796Z,9.48
2022-09-10T19:54:10.340Z,9.25
2022-09-10T19:56:41.324Z,9.05
2022-09-10T19:59:09.990Z,9.88
2022-09-10T20:01:42.172Z,9.75
2022-09-10T20:04:11.595Z,11.60
2022-09-10T20:06:40.084Z,10.05
2022-09-10T20:09:08.707Z,10.80
2022-09-10T20:11:36.738Z,11.02
2022-09-10T20:14:08.143Z,10.32
2022-09-10T20:16:43.379Z,10.10
2022-09-10T20:19:13.317Z,9.90
2022-09-10T20:21:40.648Z,9.25
2022-09-10T20:24:08.273Z,9.95
2022-09-10T20:26:41.302Z,10.23
2022-09-10T20:29:12.686Z,10.52
2022-09-10T20:31:41.402Z,10.80
2022-09-10T20:34:12.264Z,10.93
2022-09-10T20:36:42.393Z,10.95
2022-09-10T20:39:11.392Z,10.57
2022-09-10T20:41:40.249Z,11.27
2022-09-10T20:44:08.399Z,11.38
2022-09-10T20:46:35.871Z,11.10
2022-09-10T20:49:03.396Z,10.18
2022-09-10T20:51:34.349Z,11.88
2022-09-10T20:54:02.846Z,10.55
2022-09-10T20:56:29.893Z,10.50
2022-09-10T20:58:57.617Z,10.85
2022-09-10T21:01:26.525Z,11.23
2022-09-10T21:03:57.270Z,11.20
2022-09-10T21:06:26.898Z,10.63
2022-09-10T21:08:57.106Z,11.45
2022-09-10T21:11:27.179Z,10.50
2022-09-10T21:13:56.194Z,10.15
2022-09-10T21:16:28.442Z,10.88
2022-09-10T21:19:01.452Z,12.55
2022-09-10T21:21:31.397Z,11.73
2022-09-10T21:24:00.895Z,12.32
2022-09-10T21:26:33.737Z,11.95
2022-09-10T21:29:02.530Z,12.13
2022-09-10T21:31:30.763Z,10.98
2022-09-10T21:34:02.699Z,12.15
2022-09-10T21:36:31.793Z,12.57
2022-09-10T21:39:01.652Z,12.00
2022-09-10T21:41:37.551Z,11.52
2022-09-10T21:44:08.557Z,12.30
2022-09-10T21:46:36.377Z,12.90
2022-09-10T21:49:03.657Z,12.15
2022-09-10T21:51:30.740Z,10.98
2022-09-10T21:53:59.447Z,11.35
2022-09-10T21:56:29.673Z,12.05
2022-09-10T21:58:59.903Z,12.68
2022-09-10T22:01:29.833Z,11.60
2022-09-10T22:04:00.324Z,13.55
2022-09-10T22:06:30.047Z,13.13
2022-09-10T22:09:02.711Z,13.45
2022-09-10T22:11:32.792Z,12.30
2022-09-10T22:14:06.625Z,11.80
2022-09-10T22:16:35.553Z,12.20
2022-09-10T22:19:08.171Z,13.20
2022-09-10T22:21:38.591Z,11.80
2022-09-10T22:24:06.443Z,11.65
2022-09-10T22:26:34.468Z,11.48
2022-09-10T22:29:03.340Z,12.13
2022-09-10T22:31:32.970Z,12.00
2022-09-10T22:34:06.279Z,11.70
2022-09-10T22:36:35.929Z,11.57
2022-09-10T22:39:02.829Z,11.10
2022-09-10T22:41:31.901Z,12.05
2022-09-10T22:43:59.027Z,12.27
2022-09-10T22:46:26.759Z,12.15
2022-09-10T22:48:54.417Z,11.20
2022-09-10T22:51:23.673Z,12.23
2022-09-10T22:53:52.623Z,11.75
2022-09-10T22:56:22.292Z,12.32
2022-09-10T22:58:52.709Z,11.77
2022-09-10T23:01:22.867Z,11.50
2022-09-10T23:03:50.732Z,12.00
2022-09-10T23:06:22.286Z,11.93
2022-09-10T23:08:54.923Z,11.73
2022-09-10T23:11:26.450Z,12.20
2022-09-10T23:13:59.286Z,11.80
2022-09-10T23:16:35.028Z,11.85
2022-09-10T23:19:05.060Z,12.45
2022-09-10T23:21:34.404Z,11.40
2022-09-10T23:24:03.810Z,11.50
2022-09-10T23:26:30.901Z,11.90
2022-09-10T23:28:57.790Z,12.13
2022-09-10T23:31:27.989Z,12.85
2022-09-10T23:33:58.291Z,12.43
2022-09-10T23:36:31.426Z,11.68
2022-09-10T23:38:59.046Z,12.45
2022-09-10T23:41:26.805Z,11.70
2022-09-10T23:43:54.297Z,12.05
2022-09-10T23:46:21.772Z,12.05
2022-09-10T23:48:49.517Z,11.77
2022-09-10T23:51:19.289Z,11.27
2022-09-10T23:53:47.124Z,11.35
2022-09-10T23:56:20.275Z,12.43
2022-09-10T23:58:47.864Z,11.90
